Time;durP1;ratioP1;P1;durP2;ratioP2;P2;SDS_P1;SDS_P2;PMS_P1;PMS_P2;Temp;Humidity;BMP_temperature;BMP_pressure;BME280_temperature;BME280_humidity;BME280_pressure;Samples;Min_cycle;Max_cycle;Signal;HPM_P1;HPM_P2
2022/03/10 00:00:00;;;;;;;;;;;20.40;99.90;;;;;;4995946;28;19992;-72
2022/03/10 00:02:27;;;;;;;;;;;20.40;99.90;;;;;;4995854;28;20266;-74
2022/03/10 00:04:53;;;;;;;;;;;20.40;99.90;;;;;;4995872;28;19945;-72
2022/03/10 00:07:20;;;;;;;;;;;20.50;99.90;;;;;;4995864;28;19910;-73
2022/03/10 00:09:47;;;;;;;;;;;20.50;99.90;;;;;;4995841;28;20000;-72
2022/03/10 00:12:14;;;;;;;;;;;20.60;99.90;;;;;;4995902;28;19921;-73
2022/03/10 00:14:40;;;;;;;;;;;20.60;99.90;;;;;;4995861;28;20000;-72
2022/03/10 00:17:07;;;;;;;;;;;20.50;99.90;;;;;;4994467;28;19914;-72
2022/03/10 00:19:34;;;;;;;;;;;20.50;99.90;;;;;;4995629;28;20345;-72
2022/03/10 00:22:01;;;;;;;;;;;20.50;99.90;;;;;;4995376;28;19996;-72
2022/03/10 00:24:28;;;;;;;;;;;20.40;99.90;;;;;;4995578;28;20373;-72
2022/03/10 00:26:55;;;;;;;;;;;20.40;99.90;;;;;;4995619;28;19910;-71
2022/03/10 00:29:22;;;;;;;;;;;20.30;99.90;;;;;;4995633;28;19914;-73
2022/03/10 00:31:48;;;;;;;;;;;20.20;99.90;;;;;;4995465;28;19940;-72
2022/03/10 00:34:15;;;;;;;;;;;20.40;99.90;;;;;;4995276;28;19910;-73
2022/03/10 00:36:41;;;;;;;;;;;20.40;99.90;;;;;;4995482;28;19968;-72
2022/03/10 00:39:08;;;;;;;;;;;20.60;99.90;;;;;;4995464;28;20412;-73
2022/03/10 00:41:35;;;;;;;;;;;20.90;99.90;;;;;;4995390;28;19953;-74
2022/03/10 00:44:01;;;;;;;;;;;20.90;99.90;;;;;;4994879;28;19925;-72
2022/03/10 00:46:28;;;;;;;;;;;20.80;99.90;;;;;;4995252;28;19917;-73
2022/03/10 00:48:55;;;;;;;;;;;20.80;99.90;;;;;;4995135;28;20360;-74
2022/03/10 00:51:21;;;;;;;;;;;20.70;99.90;;;;;;4995152;28;20404;-73
2022/03/10 00:53:48;;;;;;;;;;;20.90;99.90;;;;;;4995084;28;19910;-73
2022/03/10 00:56:15;;;;;;;;;;;20.90;99.90;;;;;;4995020;28;19910;-73
2022/03/10 00:58:41;;;;;;;;;;;20.80;99.90;;;;;;4995007;28;19913;-74
2022/03/10 01:01:09;;;;;;;;;;;20.60;99.90;;;;;;4994880;28;19909;-73
2022/03/10 01:03:36;;;;;;;;;;;20.80;99.90;;;;;;4994757;28;20387;-72
2022/03/10 01:06:02;;;;;;;;;;;20.90;99.90;;;;;;4994904;28;20280;-73
2022/03/10 01:08:29;;;;;;;;;;;21.00;99.90;;;;;;4994837;28;20378;-74
2022/03/10 01:10:56;;;;;;;;;;;20.80;99.90;;;;;;4994801;28;19918;-73
2022/03/10 01:13:23;;;;;;;;;;;20.80;99.90;;;;;;4976806;28;19932;-74
2022/03/10 01:16:02;;;;;;;;;;;21.10;99.90;;;;;;4993917;28;19916;-75
2022/03/10 01:18:28;;;;;;;;;;;21.30;99.90;;;;;;4953190;29;19917;-73
2022/03/10 01:20:55;;;;;;;;;;;21.50;99.90;;;;;;4953629;29;19914;-73
2022/03/10 01:23:22;;;;;;;;;;;21.80;99.90;;;;;;4953521;29;19918;-72
2022/03/10 01:25:48;;;;;;;;;;;21.90;99.60;;;;;;4953301;29;20289;-72
2022/03/10 01:28:15;;;;;;;;;;;21.90;99.70;;;;;;4953334;29;19910;-74
2022/03/10 01:30:42;;;;;;;;;;;22.00;99.90;;;;;;4953268;29;19976;-73
2022/03/10 01:33:09;;;;;;;;;;;22.10;99.90;;;;;;4953234;29;19918;-73
2022/03/10 01:35:36;;;;;;;;;;;22.30;99.80;;;;;;4953378;29;19911;-74
2022/03/10 01:38:02;;;;;;;;;;;22.20;99.90;;;;;;4953698;29;19911;-73
2022/03/10 01:40:29;;;;;;;;;;;22.20;99.80;;;;;;4953246;29;19962;-73
2022/03/10 01:42:56;;;;;;;;;;;22.30;99.30;;;;;;4953310;29;19944;-73
2022/03/10 01:45:23;;;;;;;;;;;22.20;99.90;;;;;;4953197;29;19995;-73
2022/03/10 01:47:49;;;;;;;;;;;22.40;99.40;;;;;;4952986;29;20013;-73
2022/03/10 01:50:17;;;;;;;;;;;22.30;99.20;;;;;;4952976;29;20287;-73
2022/03/10 01:52:45;;;;;;;;;;;22.10;99.90;;;;;;4953047;29;20369;-74
2022/03/10 01:55:12;;;;;;;;;;;22.00;99.90;;;;;;4961829;28;19916;-73
2022/03/10 01:57:40;;;;;;;;;;;22.00;99.90;;;;;;4993657;28;19909;-73
2022/03/10 02:00:07;;;;;;;;;;;21.90;99.90;;;;;;4993782;28;19917;-74
2022/03/10 02:02:34;;;;;;;;;;;21.70;99.50;;;;;;4993954;28;20257;-73
2022/03/10 02:05:01;;;;;;;;;;;21.60;99.90;;;;;;4993631;28;19910;-73
2022/03/10 02:10:18;;;;;;;;;;;21.60;99.90;;;;;;4993404;28;19964;-73
2022/03/10 02:12:49;;;;;;;;;;;21.60;99.90;;;;;;4993591;28;19914;-73
2022/03/10 02:18:02;;;;;;;;;;;21.70;99.90;;;;;;4993708;28;19945;-72
2022/03/10 02:20:28;;;;;;;;;;;21.60;99.90;;;;;;4993412;28;19965;-73
2022/03/10 02:22:55;;;;;;;;;;;21.70;99.90;;;;;;4993458;28;20101;-72
2022/03/10 02:25:22;;;;;;;;;;;21.60;99.90;;;;;;4993540;28;20427;-72
2022/03/10 02:27:50;;;;;;;;;;;21.50;99.90;;;;;;4993223;28;19910;-74
2022/03/10 02:30:18;;;;;;;;;;;21.60;99.90;;;;;;4993326;28;20349;-73
2022/03/10 02:32:45;;;;;;;;;;;21.60;99.90;;;;;;4993071;28;20327;-72
2022/03/10 02:35:12;;;;;;;;;;;21.70;99.90;;;;;;4993332;28;20297;-72
2022/03/10 02:37:38;;;;;;;;;;;21.70;99.40;;;;;;4993200;28;20356;-72
2022/03/10 02:40:05;;;;;;;;;;;21.50;99.80;;;;;;4993550;28;19996;-72
2022/03/10 02:42:32;;;;;;;;;;;21.40;99.90;;;;;;4993104;28;19921;-72
2022/03/10 02:44:59;;;;;;;;;;;21.60;99.90;;;;;;4993064;28;20368;-72
2022/03/10 02:47:25;;;;;;;;;;;21.60;99.90;;;;;;4993142;28;19910;-73
2022/03/10 02:49:52;;;;;;;;;;;21.70;99.90;;;;;;4992724;28;19921;-74
2022/03/10 02:52:19;;;;;;;;;;;21.70;99.90;;;;;;4993302;28;19914;-75
2022/03/10 02:54:46;;;;;;;;;;;21.70;99.90;;;;;;4993337;28;19916;-75
2022/03/10 02:57:13;;;;;;;;;;;21.70;99.90;;;;;;4993279;28;20013;-73
2022/03/10 02:59:40;;;;;;;;;;;21.80;99.90;;;;;;4992826;28;19910;-73
2022/03/10 03:02:07;;;;;;;;;;;21.80;99.90;;;;;;4993049;28;19917;-74
2022/03/10 03:04:34;;;;;;;;;;;22.10;99.90;;;;;;4992942;28;19917;-73
2022/03/10 03:07:00;;;;;;;;;;;21.90;99.90;;;;;;4993076;28;19910;-73
2022/03/10 03:09:28;;;;;;;;;;;21.90;99.90;;;;;;4993156;28;19917;-74
2022/03/10 03:11:55;;;;;;;;;;;21.70;99.50;;;;;;4992915;28;19957;-72
2022/03/10 03:14:24;;;;;;;;;;;21.70;99.90;;;;;;4993064;28;19976;-74
2022/03/10 03:16:51;;;;;;;;;;;21.80;99.90;;;;;;4992927;28;19917;-73
2022/03/10 03:19:18;;;;;;;;;;;21.80;99.90;;;;;;4993049;28;20024;-74
2022/03/10 03:21:45;;;;;;;;;;;21.80;99.90;;;;;;4975467;28;19996;-74
2022/03/10 03:24:11;;;;;;;;;;;21.80;99.90;;;;;;4992953;28;19914;-75
2022/03/10 03:26:38;;;;;;;;;;;21.90;99.90;;;;;;4992736;28;19910;-72
2022/03/10 03:29:05;;;;;;;;;;;21.80;99.80;;;;;;4992968;28;19915;-72
2022/03/10 03:31:31;;;;;;;;;;;21.70;99.50;;;;;;4992756;28;20169;-72
2022/03/10 03:33:58;;;;;;;;;;;21.70;99.90;;;;;;4992354;28;19910;-71
2022/03/10 03:36:25;;;;;;;;;;;21.90;99.90;;;;;;4992877;28;19918;-73
2022/03/10 03:38:52;;;;;;;;;;;21.80;99.80;;;;;;4994934;28;19918;-75
2022/03/10 03:41:18;;;;;;;;;;;21.90;99.90;;;;;;4996355;28;19944;-74
2022/03/10 03:43:45;;;;;;;;;;;21.90;99.90;;;;;;4995910;28;19926;-73
2022/03/10 03:46:11;;;;;;;;;;;21.90;99.90;;;;;;4996103;28;19913;-72
2022/03/10 03:48:39;;;;;;;;;;;21.90;99.80;;;;;;4994902;28;19909;-74
2022/03/10 03:51:06;;;;;;;;;;;21.90;99.90;;;;;;4996077;28;20016;-73
2022/03/10 03:53:33;;;;;;;;;;;22.00;99.60;;;;;;4996144;28;19909;-72
2022/03/10 03:55:59;;;;;;;;;;;21.90;99.30;;;;;;4996083;28;19960;-74
2022/03/10 03:58:26;;;;;;;;;;;21.70;99.40;;;;;;4978606;28;20288;-73
2022/03/10 04:00:53;;;;;;;;;;;21.60;99.90;;;;;;4995988;28;19910;-75
2022/03/10 04:03:19;;;;;;;;;;;21.60;99.90;;;;;;4995968;28;19969;-74
2022/03/10 04:05:46;;;;;;;;;;;21.80;99.90;;;;;;4995739;28;19917;-75
2022/03/10 04:08:13;;;;;;;;;;;21.70;99.90;;;;;;4995830;28;19949;-74
2022/03/10 04:10:39;;;;;;;;;;;21.80;99.90;;;;;;4995008;28;19914;-74
2022/03/10 04:13:06;;;;;;;;;;;21.70;99.90;;;;;;4995619;28;19909;-74
2022/03/10 04:15:36;;;;;;;;;;;21.70;99.90;;;;;;4995779;28;19936;-74
2022/03/10 04:18:02;;;;;;;;;;;21.70;99.90;;;;;;4995794;28;20012;-74
2022/03/10 04:20:29;;;;;;;;;;;21.70;99.90;;;;;;4994579;28;19953;-74
2022/03/10 04:22:56;;;;;;;;;;;21.80;99.90;;;;;;4995508;28;19941;-74
2022/03/10 04:25:22;;;;;;;;;;;21.80;99.90;;;;;;4995692;28;19909;-73
2022/03/10 04:27:51;;;;;;;;;;;21.80;99.90;;;;;;4977699;28;19917;-73
2022/03/10 04:30:22;;;;;;;;;;;21.70;99.90;;;;;;4995492;28;19925;-73
2022/03/10 04:32:49;;;;;;;;;;;21.70;99.90;;;;;;4995499;28;19910;-73
2022/03/10 04:35:17;;;;;;;;;;;21.70;99.90;;;;;;4995411;28;19917;-74
2022/03/10 04:37:44;;;;;;;;;;;21.70;99.90;;;;;;4995158;28;19910;-74
2022/03/10 04:40:11;;;;;;;;;;;21.80;99.90;;;;;;4995331;28;19952;-73
2022/03/10 04:42:38;;;;;;;;;;;21.90;99.90;;;;;;4995080;28;19926;-74
2022/03/10 04:45:06;;;;;;;;;;;22.00;99.60;;;;;;4995356;28;19910;-74
2022/03/10 04:47:33;;;;;;;;;;;21.90;99.50;;;;;;4995045;28;19910;-73
2022/03/10 04:50:00;;;;;;;;;;;21.90;99.90;;;;;;4993683;28;19910;-74
2022/03/10 04:52:27;;;;;;;;;;;21.90;99.10;;;;;;4995076;28;19914;-73
2022/03/10 04:54:54;;;;;;;;;;;21.90;99.50;;;;;;4995059;28;19909;-73
2022/03/10 04:57:21;;;;;;;;;;;21.80;99.20;;;;;;4995086;28;19910;-73
2022/03/10 04:59:48;;;;;;;;;;;21.70;99.60;;;;;;4994794;28;19926;-73
2022/03/10 05:02:15;;;;;;;;;;;22.00;99.50;;;;;;4995003;28;19965;-73
2022/03/10 05:04:42;;;;;;;;;;;21.90;98.30;;;;;;4994670;28;19913;-74
2022/03/10 05:07:09;;;;;;;;;;;21.90;98.30;;;;;;4994781;28;19909;-74
2022/03/10 05:09:35;;;;;;;;;;;21.80;98.60;;;;;;4994636;28;20355;-73
2022/03/10 05:12:02;;;;;;;;;;;21.70;99.20;;;;;;4994269;28;20376;-73
2022/03/10 05:14:33;;;;;;;;;;;21.50;99.70;;;;;;4992864;28;20136;-73
2022/03/10 05:16:59;;;;;;;;;;;21.30;99.70;;;;;;4992435;28;19909;-73
2022/03/10 05:19:26;;;;;;;;;;;21.40;99.90;;;;;;4994109;28;20341;-73
2022/03/10 05:21:52;;;;;;;;;;;21.60;99.70;;;;;;4994223;28;20422;-75
2022/03/10 05:24:19;;;;;;;;;;;21.50;98.80;;;;;;4994401;28;19964;-74
2022/03/10 05:26:47;;;;;;;;;;;21.50;98.60;;;;;;4994636;28;19910;-74
2022/03/10 05:29:13;;;;;;;;;;;21.30;98.90;;;;;;4994486;28;19910;-74
2022/03/10 05:31:40;;;;;;;;;;;21.20;99.80;;;;;;4994114;28;19922;-75
2022/03/10 05:34:07;;;;;;;;;;;21.20;99.90;;;;;;4994073;28;19909;-72
2022/03/10 05:36:36;;;;;;;;;;;21.20;99.90;;;;;;4994291;28;20013;-75
2022/03/10 05:39:04;;;;;;;;;;;21.10;99.90;;;;;;4994249;28;19910;-73
2022/03/10 05:41:32;;;;;;;;;;;21.10;99.90;;;;;;4976734;28;19917;-72
2022/03/10 05:43:59;;;;;;;;;;;21.20;99.90;;;;;;4993551;28;20009;-73
2022/03/10 05:46:26;;;;;;;;;;;21.10;99.90;;;;;;4994107;28;19920;-73
2022/03/10 05:48:53;;;;;;;;;;;21.20;99.90;;;;;;4994074;28;19914;-74
2022/03/10 05:51:19;;;;;;;;;;;21.20;99.80;;;;;;4992401;28;19922;-73
2022/03/10 05:53:48;;;;;;;;;;;21.20;99.90;;;;;;4974406;28;19913;-73
2022/03/10 05:56:14;;;;;;;;;;;21.20;99.90;;;;;;4992212;28;19913;-74
2022/03/10 05:58:41;;;;;;;;;;;21.30;99.70;;;;;;4991825;28;19910;-74
2022/03/10 06:01:08;;;;;;;;;;;21.40;99.90;;;;;;4991560;28;20099;-74
2022/03/10 06:03:34;;;;;;;;;;;21.40;99.70;;;;;;4991570;28;19969;-74
2022/03/10 06:06:01;;;;;;;;;;;21.50;99.80;;;;;;4991014;28;19914;-74
2022/03/10 06:08:28;;;;;;;;;;;21.50;99.60;;;;;;4991493;28;19913;-74
2022/03/10 06:10:54;;;;;;;;;;;21.50;99.90;;;;;;4991439;28;20020;-73
2022/03/10 06:13:21;;;;;;;;;;;21.60;99.90;;;;;;4991747;28;20279;-74
2022/03/10 06:15:47;;;;;;;;;;;21.60;99.40;;;;;;4991399;28;19917;-74
2022/03/10 06:18:14;;;;;;;;;;;21.60;99.60;;;;;;4973546;28;19909;-74
2022/03/10 06:20:41;;;;;;;;;;;21.50;99.70;;;;;;4991386;28;19916;-73
2022/03/10 06:23:07;;;;;;;;;;;21.60;99.90;;;;;;4991237;28;19910;-73
2022/03/10 06:25:34;;;;;;;;;;;21.50;99.90;;;;;;4991488;28;20566;-73
2022/03/10 06:28:01;;;;;;;;;;;21.40;99.90;;;;;;4973741;28;20376;-73
2022/03/10 06:30:28;;;;;;;;;;;21.30;99.90;;;;;;4990751;28;19972;-74
2022/03/10 06:32:55;;;;;;;;;;;21.20;99.90;;;;;;4991140;28;19920;-74
2022/03/10 06:35:21;;;;;;;;;;;21.10;99.90;;;;;;4991525;28;20068;-72
2022/03/10 06:37:48;;;;;;;;;;;20.90;99.90;;;;;;4991131;28;19912;-73
2022/03/10 06:40:15;;;;;;;;;;;20.90;99.90;;;;;;4991185;28;19948;-73
2022/03/10 06:42:41;;;;;;;;;;;20.80;99.90;;;;;;4991023;28;19922;-74
2022/03/10 06:45:08;;;;;;;;;;;20.80;99.90;;;;;;4990681;28;20296;-73
2022/03/10 06:47:35;;;;;;;;;;;20.80;99.90;;;;;;4973330;28;19910;-74
2022/03/10 06:50:02;;;;;;;;;;;20.80;99.90;;;;;;4990782;28;19921;-74
2022/03/10 06:52:32;;;;;;;;;;;20.80;99.90;;;;;;4974080;28;19918;-72
2022/03/10 06:54:59;;;;;;;;;;;20.80;99.90;;;;;;4991184;28;20000;-73
2022/03/10 06:57:25;;;;;;;;;;;20.90;99.90;;;;;;4990854;28;19914;-73
2022/03/10 06:59:52;;;;;;;;;;;20.90;99.90;;;;;;4990705;28;19922;-73
2022/03/10 07:02:19;;;;;;;;;;;20.90;99.90;;;;;;4990777;28;19920;-73
2022/03/10 07:04:45;;;;;;;;;;;20.90;99.90;;;;;;4991002;28;19910;-74
2022/03/10 07:07:12;;;;;;;;;;;20.80;99.90;;;;;;4990794;28;19918;-72
2022/03/10 07:09:53;;;;;;;;;;;20.90;99.90;;;;;;4990445;28;19909;-73
2022/03/10 07:12:23;;;;;;;;;;;20.90;99.90;;;;;;4990115;28;19953;-74
2022/03/10 07:14:49;;;;;;;;;;;20.90;99.90;;;;;;4993731;28;19918;-73
2022/03/10 07:17:16;;;;;;;;;;;20.80;99.90;;;;;;4994676;28;19920;-73
2022/03/10 07:19:43;;;;;;;;;;;20.80;99.90;;;;;;4994429;28;19910;-73
2022/03/10 07:22:09;;;;;;;;;;;20.90;99.90;;;;;;4992191;28;20368;-74
2022/03/10 07:24:36;;;;;;;;;;;20.80;99.90;;;;;;4994151;28;19914;-72
2022/03/10 07:27:03;;;;;;;;;;;20.80;99.90;;;;;;4994621;28;19909;-74
2022/03/10 07:29:29;;;;;;;;;;;20.70;99.90;;;;;;4994409;28;19963;-73
2022/03/10 07:31:56;;;;;;;;;;;20.70;99.90;;;;;;4993996;28;19943;-73
2022/03/10 07:34:23;;;;;;;;;;;20.80;99.90;;;;;;4994144;28;20369;-74
2022/03/10 07:36:50;;;;;;;;;;;20.70;99.90;;;;;;4994540;28;20269;-72
2022/03/10 07:39:17;;;;;;;;;;;20.70;99.90;;;;;;4994314;28;19914;-73
2022/03/10 07:41:43;;;;;;;;;;;20.60;99.90;;;;;;4994167;28;19914;-74
2022/03/10 07:44:10;;;;;;;;;;;20.60;99.90;;;;;;4994201;28;19965;-74
2022/03/10 07:46:37;;;;;;;;;;;20.50;99.90;;;;;;4994381;28;19917;-73
2022/03/10 07:49:06;;;;;;;;;;;20.40;99.90;;;;;;4993706;28;19910;-73
2022/03/10 07:51:33;;;;;;;;;;;20.40;99.90;;;;;;4994199;28;19918;-73
2022/03/10 07:53:59;;;;;;;;;;;20.40;99.90;;;;;;4993395;28;19913;-74
2022/03/10 07:56:26;;;;;;;;;;;20.40;99.90;;;;;;4991835;28;20033;-73
2022/03/10 07:58:52;;;;;;;;;;;20.40;99.90;;;;;;4993947;28;19950;-73
2022/03/10 08:01:19;;;;;;;;;;;20.40;99.90;;;;;;4993228;28;19961;-73
2022/03/10 08:03:47;;;;;;;;;;;20.40;99.90;;;;;;4993842;28;19917;-74
2022/03/10 08:06:13;;;;;;;;;;;20.40;99.90;;;;;;4995215;28;20410;-73
2022/03/10 08:08:40;;;;;;;;;;;20.40;99.90;;;;;;4996012;28;19910;-75
2022/03/10 08:11:08;;;;;;;;;;;20.30;99.90;;;;;;4995732;28;19969;-73
2022/03/10 08:13:35;;;;;;;;;;;20.30;99.90;;;;;;4995843;28;20364;-74
2022/03/10 08:16:02;;;;;;;;;;;20.30;99.90;;;;;;4995527;28;19910;-74
2022/03/10 08:18:29;;;;;;;;;;;20.30;99.90;;;;;;4995791;28;20353;-75
2022/03/10 08:20:59;;;;;;;;;;;20.30;99.90;;;;;;4995532;28;19961;-73
2022/03/10 08:23:27;;;;;;;;;;;20.30;99.90;;;;;;4995436;28;19996;-74
2022/03/10 08:25:54;;;;;;;;;;;20.30;99.90;;;;;;4995420;28;19965;-75
2022/03/10 08:28:21;;;;;;;;;;;20.30;99.90;;;;;;4995569;28;20245;-74
2022/03/10 08:30:47;;;;;;;;;;;20.30;99.90;;;;;;4995209;28;19965;-74
2022/03/10 08:33:14;;;;;;;;;;;20.30;99.90;;;;;;4995625;28;19913;-73
2022/03/10 08:35:41;;;;;;;;;;;20.30;99.90;;;;;;4995245;28;19956;-75
2022/03/10 08:38:08;;;;;;;;;;;20.40;99.90;;;;;;4995341;28;19914;-73
2022/03/10 08:40:34;;;;;;;;;;;20.40;99.90;;;;;;4995302;28;19909;-74
2022/03/10 08:43:01;;;;;;;;;;;20.40;99.90;;;;;;4995241;28;19922;-75
2022/03/10 08:45:28;;;;;;;;;;;20.30;99.90;;;;;;4995311;28;19910;-74
2022/03/10 08:47:55;;;;;;;;;;;20.30;99.90;;;;;;4994993;28;19910;-75
2022/03/10 08:50:22;;;;;;;;;;;20.30;99.90;;;;;;4995152;28;19921;-74
2022/03/10 08:52:49;;;;;;;;;;;20.30;99.90;;;;;;4995378;28;19910;-74
2022/03/10 08:55:16;;;;;;;;;;;20.30;99.90;;;;;;4995150;28;19910;-75
2022/03/10 08:57:42;;;;;;;;;;;20.30;99.90;;;;;;4994912;28;19914;-75
2022/03/10 09:00:10;;;;;;;;;;;20.30;99.90;;;;;;4994995;28;20349;-75
2022/03/10 09:02:37;;;;;;;;;;;20.30;99.90;;;;;;4994949;28;20044;-73
2022/03/10 09:05:04;;;;;;;;;;;20.30;99.90;;;;;;4994844;28;20000;-74
2022/03/10 09:07:30;;;;;;;;;;;20.30;99.90;;;;;;4994898;28;19918;-75
2022/03/10 09:09:57;;;;;;;;;;;20.30;99.90;;;;;;4994617;28;20292;-75
2022/03/10 09:12:24;;;;;;;;;;;20.20;99.90;;;;;;4994848;28;19918;-75
2022/03/10 09:14:50;;;;;;;;;;;20.30;99.90;;;;;;4994874;28;19910;-75
2022/03/10 09:17:17;;;;;;;;;;;20.30;99.90;;;;;;4994490;28;19934;-75
2022/03/10 09:19:43;;;;;;;;;;;20.30;99.90;;;;;;4994478;28;20284;-74
2022/03/10 09:22:10;;;;;;;;;;;20.20;99.90;;;;;;4994635;28;20391;-75
2022/03/10 09:24:37;;;;;;;;;;;20.20;99.90;;;;;;4994553;28;20340;-75
2022/03/10 09:27:05;;;;;;;;;;;20.20;99.90;;;;;;4994579;28;19917;-73
2022/03/10 09:29:32;;;;;;;;;;;20.20;99.90;;;;;;4994406;28;19916;-75
2022/03/10 09:31:59;;;;;;;;;;;20.20;99.90;;;;;;4994075;28;19972;-76
2022/03/10 09:34:25;;;;;;;;;;;20.20;99.90;;;;;;4994579;28;20380;-75
2022/03/10 09:36:52;;;;;;;;;;;20.20;99.90;;;;;;4994110;28;19913;-74
2022/03/10 09:39:20;;;;;;;;;;;20.20;99.90;;;;;;4994373;28;19910;-74
2022/03/10 09:41:46;;;;;;;;;;;20.20;99.90;;;;;;4994232;28;19956;-76
2022/03/10 09:44:22;;;;;;;;;;;20.20;99.90;;;;;;4994087;28;19929;-75
2022/03/10 09:46:50;;;;;;;;;;;20.10;99.90;;;;;;4994112;28;20280;-75
2022/03/10 09:49:22;;;;;;;;;;;20.20;99.90;;;;;;4994080;28;19989;-76
2022/03/10 09:51:49;;;;;;;;;;;20.10;99.90;;;;;;4993891;28;20025;-75
2022/03/10 09:54:16;;;;;;;;;;;20.10;99.90;;;;;;4993977;28;19909;-76
2022/03/10 09:56:43;;;;;;;;;;;20.10;99.90;;;;;;4992025;28;19917;-73
2022/03/10 09:59:10;;;;;;;;;;;20.10;99.90;;;;;;4993869;28;19909;-75
2022/03/10 10:01:37;;;;;;;;;;;20.10;99.90;;;;;;4993452;28;19917;-73
2022/03/10 10:04:04;;;;;;;;;;;20.10;99.90;;;;;;4993358;28;19933;-74
2022/03/10 10:06:30;;;;;;;;;;;20.10;99.90;;;;;;4993802;28;19910;-73
2022/03/10 10:08:57;;;;;;;;;;;20.10;99.90;;;;;;4993799;28;19917;-76
2022/03/10 10:11:31;;;;;;;;;;;20.10;99.90;;;;;;4993815;28;20125;-73
2022/03/10 10:13:57;;;;;;;;;;;20.10;99.90;;;;;;4993584;28;19921;-72
2022/03/10 10:16:24;;;;;;;;;;;20.10;99.90;;;;;;4993405;28;19909;-73
2022/03/10 10:18:58;;;;;;;;;;;20.10;99.90;;;;;;4993546;28;19909;-75
2022/03/10 10:21:25;;;;;;;;;;;20.00;99.90;;;;;;4993453;28;20285;-75
2022/03/10 10:23:53;;;;;;;;;;;20.00;99.90;;;;;;4993269;28;19914;-73
2022/03/10 10:26:26;;;;;;;;;;;20.00;99.90;;;;;;4993309;28;19910;-74
2022/03/10 10:28:52;;;;;;;;;;;20.00;99.90;;;;;;4993494;28;19936;-74
2022/03/10 10:31:21;;;;;;;;;;;20.00;99.90;;;;;;4993095;28;19924;-72
2022/03/10 10:34:09;;;;;;;;;;;20.00;99.90;;;;;;4992534;28;19910;-73
2022/03/10 10:36:37;;;;;;;;;;;20.00;99.90;;;;;;4993416;28;19913;-74
2022/03/10 10:39:11;;;;;;;;;;;20.00;99.90;;;;;;4993316;28;20327;-73
2022/03/10 10:41:41;;;;;;;;;;;20.00;99.90;;;;;;4993168;28;19945;-73
2022/03/10 10:44:09;;;;;;;;;;;20.00;99.90;;;;;;4993253;28;19929;-75
2022/03/10 10:46:35;;;;;;;;;;;20.00;99.90;;;;;;4992994;28;20403;-73
2022/03/10 10:49:09;;;;;;;;;;;20.00;99.90;;;;;;4991708;28;19914;-73
2022/03/10 10:51:41;;;;;;;;;;;20.00;99.90;;;;;;4993282;28;19918;-73
2022/03/10 10:54:09;;;;;;;;;;;19.90;99.90;;;;;;4993307;28;19910;-73
2022/03/10 10:56:36;;;;;;;;;;;20.00;99.90;;;;;;4993222;28;20004;-74
2022/03/10 10:59:03;;;;;;;;;;;19.90;99.90;;;;;;4993101;28;19910;-74
2022/03/10 11:01:31;;;;;;;;;;;20.00;99.90;;;;;;4992842;28;19917;-73
2022/03/10 11:03:57;;;;;;;;;;;20.00;99.90;;;;;;4992354;28;19914;-73
2022/03/10 11:06:25;;;;;;;;;;;19.90;99.90;;;;;;4993041;28;20004;-73
2022/03/10 11:08:52;;;;;;;;;;;19.90;99.90;;;;;;4993114;28;19913;-74
2022/03/10 11:11:20;;;;;;;;;;;19.90;99.90;;;;;;4992922;28;20280;-73
2022/03/10 11:13:49;;;;;;;;;;;19.90;99.90;;;;;;4992798;28;19949;-74
2022/03/10 11:16:16;;;;;;;;;;;19.80;99.90;;;;;;4992842;28;19914;-74
2022/03/10 11:18:52;;;;;;;;;;;19.80;99.90;;;;;;4992387;28;20209;-76
2022/03/10 11:21:25;;;;;;;;;;;19.80;99.90;;;;;;4993023;28;19932;-74
2022/03/10 11:24:07;;;;;;;;;;;19.80;99.90;;;;;;4992871;28;19910;-73
2022/03/10 11:26:33;;;;;;;;;;;19.80;99.90;;;;;;4992858;28;19910;-75
2022/03/10 11:29:00;;;;;;;;;;;19.80;99.90;;;;;;4993022;28;19910;-73
2022/03/10 11:31:29;;;;;;;;;;;19.80;99.90;;;;;;4992765;28;20380;-75
2022/03/10 11:33:56;;;;;;;;;;;19.80;99.90;;;;;;4992109;28;20357;-73
2022/03/10 11:36:23;;;;;;;;;;;19.80;99.90;;;;;;4990914;28;19921;-73
2022/03/10 11:38:59;;;;;;;;;;;19.70;99.90;;;;;;4990717;28;19910;-74
2022/03/10 11:41:41;;;;;;;;;;;19.70;99.90;;;;;;4990433;28;19910;-74
2022/03/10 11:44:08;;;;;;;;;;;19.70;99.90;;;;;;4988828;28;20476;-74
2022/03/10 11:46:36;;;;;;;;;;;19.70;99.90;;;;;;4990607;28;19945;-73
2022/03/10 11:49:06;;;;;;;;;;;19.70;99.90;;;;;;4990954;28;19910;-74
2022/03/10 11:51:42;;;;;;;;;;;19.70;99.90;;;;;;4990120;28;20327;-73
2022/03/10 11:54:09;;;;;;;;;;;19.60;99.90;;;;;;4990662;28;19914;-74
2022/03/10 11:56:45;;;;;;;;;;;19.70;99.90;;;;;;4990741;28;19910;-73
2022/03/10 11:59:24;;;;;;;;;;;19.70;99.90;;;;;;4991531;28;19914;-71
2022/03/10 12:01:51;;;;;;;;;;;19.60;99.90;;;;;;4993809;28;19964;-73
2022/03/10 12:04:22;;;;;;;;;;;19.60;99.90;;;;;;4994274;28;19914;-72
2022/03/10 12:06:53;;;;;;;;;;;19.60;99.90;;;;;;4994260;28;19909;-72
2022/03/10 12:09:27;;;;;;;;;;;19.70;99.90;;;;;;4994187;28;19959;-72
2022/03/10 12:11:54;;;;;;;;;;;19.60;99.90;;;;;;4993150;28;19918;-73
2022/03/10 12:14:25;;;;;;;;;;;19.60;99.90;;;;;;4994076;28;19910;-72
2022/03/10 12:16:52;;;;;;;;;;;19.60;99.90;;;;;;4993952;28;19913;-73
2022/03/10 12:19:18;;;;;;;;;;;19.60;99.90;;;;;;4993670;28;19956;-72
2022/03/10 12:21:45;;;;;;;;;;;19.70;99.90;;;;;;4993496;28;19910;-72
2022/03/10 12:24:13;;;;;;;;;;;19.60;99.90;;;;;;4993189;28;19918;-72
2022/03/10 12:26:43;;;;;;;;;;;19.60;99.90;;;;;;4993594;28;20052;-72
2022/03/10 12:29:11;;;;;;;;;;;19.70;99.90;;;;;;4993553;28;19910;-71
2022/03/10 12:31:38;;;;;;;;;;;19.70;99.90;;;;;;4993253;28;19924;-72
2022/03/10 12:34:10;;;;;;;;;;;19.60;99.90;;;;;;4993525;28;20360;-72
2022/03/10 12:36:41;;;;;;;;;;;19.60;99.90;;;;;;4993173;28;19954;-72
2022/03/10 12:39:08;;;;;;;;;;;19.70;99.90;;;;;;4993488;28;19965;-72
2022/03/10 12:41:37;;;;;;;;;;;19.70;99.90;;;;;;4975844;28;19945;-72
2022/03/10 12:44:06;;;;;;;;;;;19.80;99.90;;;;;;4993127;28;19929;-72
2022/03/10 12:46:34;;;;;;;;;;;19.80;99.90;;;;;;4993176;28;19922;-72
2022/03/10 12:49:08;;;;;;;;;;;19.80;99.90;;;;;;4992449;28;20269;-72
2022/03/10 12:51:36;;;;;;;;;;;19.80;99.90;;;;;;4991625;28;20584;-73
2022/03/10 12:54:03;;;;;;;;;;;19.80;99.90;;;;;;4993229;28;20292;-72
2022/03/10 12:56:42;;;;;;;;;;;19.70;99.90;;;;;;4993343;28;20420;-72
2022/03/10 12:59:08;;;;;;;;;;;19.60;99.90;;;;;;4993112;28;19933;-72
2022/03/10 13:01:35;;;;;;;;;;;19.50;99.90;;;;;;4993005;28;19910;-72
2022/03/10 13:04:02;;;;;;;;;;;19.40;99.90;;;;;;4992804;28;19914;-74
2022/03/10 13:06:29;;;;;;;;;;;19.30;99.90;;;;;;4993005;28;19949;-73
2022/03/10 13:08:59;;;;;;;;;;;19.30;99.90;;;;;;4992842;28;19909;-74
2022/03/10 13:11:26;;;;;;;;;;;19.20;99.90;;;;;;4991929;28;19953;-73
2022/03/10 13:14:06;;;;;;;;;;;19.10;99.90;;;;;;4992576;28;19913;-73
2022/03/10 13:16:37;;;;;;;;;;;19.10;99.90;;;;;;4992443;28;20367;-73
2022/03/10 13:19:04;;;;;;;;;;;19.10;99.90;;;;;;4992732;28;19913;-74
2022/03/10 13:21:31;;;;;;;;;;;19.10;99.90;;;;;;4992521;28;19914;-73
2022/03/10 13:23:57;;;;;;;;;;;19.10;99.90;;;;;;4992316;28;19914;-73
2022/03/10 13:26:27;;;;;;;;;;;19.10;99.90;;;;;;4992623;28;19910;-73
2022/03/10 13:28:54;;;;;;;;;;;19.00;99.90;;;;;;4992236;28;20321;-73
2022/03/10 13:31:30;;;;;;;;;;;18.90;99.90;;;;;;4990993;28;19940;-73
2022/03/10 13:33:59;;;;;;;;;;;18.80;99.90;;;;;;4992400;28;20268;-73
2022/03/10 13:36:26;;;;;;;;;;;18.90;99.90;;;;;;4992443;28;19910;-73
2022/03/10 13:38:53;;;;;;;;;;;18.90;99.90;;;;;;4992475;28;19930;-73
2022/03/10 13:41:20;;;;;;;;;;;18.90;99.90;;;;;;4992218;28;20277;-73
2022/03/10 13:43:47;;;;;;;;;;;18.90;99.90;;;;;;4991625;28;19944;-72
2022/03/10 13:46:16;;;;;;;;;;;18.80;99.90;;;;;;4992147;28;19913;-73
2022/03/10 13:48:54;;;;;;;;;;;18.80;99.90;;;;;;4992204;28;19940;-73
2022/03/10 13:51:21;;;;;;;;;;;18.80;99.90;;;;;;4992059;28;20370;-73
2022/03/10 13:53:55;;;;;;;;;;;18.70;99.90;;;;;;4992015;28;19910;-71
2022/03/10 13:56:28;;;;;;;;;;;18.70;99.90;;;;;;4991709;28;19918;-72
2022/03/10 13:58:55;;;;;;;;;;;18.70;99.90;;;;;;4991926;28;19925;-72
2022/03/10 14:01:24;;;;;;;;;;;18.60;99.90;;;;;;4992050;28;19914;-72
2022/03/10 14:03:52;;;;;;;;;;;18.60;99.90;;;;;;4990410;28;20267;-71
2022/03/10 14:06:20;;;;;;;;;;;18.60;99.90;;;;;;4991801;28;19996;-71
2022/03/10 14:08:48;;;;;;;;;;;18.50;99.90;;;;;;4991480;28;19920;-71
2022/03/10 14:11:15;;;;;;;;;;;18.50;99.90;;;;;;4991818;28;19964;-72
2022/03/10 14:13:43;;;;;;;;;;;18.40;99.90;;;;;;4991550;28;19949;-72
2022/03/10 14:16:14;;;;;;;;;;;18.40;99.90;;;;;;4991638;28;19957;-72
2022/03/10 14:18:45;;;;;;;;;;;18.40;99.90;;;;;;4991668;28;19914;-73
2022/03/10 14:21:11;;;;;;;;;;;18.30;99.90;;;;;;4991427;28;19910;-72
2022/03/10 14:23:38;;;;;;;;;;;18.30;99.90;;;;;;4991192;28;19949;-72